Rosetown East, Canada
Current Conditions -  °F | °C
As of 4:00 PM on Sunday 23 Nov 2014 (Local Time) from CYKY Reporting Station
Few Clouds Few Clouds  
Wind Chill: 16°   Ceiling: Unl
Heat Index: 16°   Visibility: 15mi
Dew Point: 10°   Wind: 2mph
Humidity: 79%   Direction: 300°WNW
Pressure: 29.78"   Gusts: NA
Location:  51.57°N, 107.92°W
Report Text: CYKY 232200Z 30002KT 15SM FEW100 FEW250 M09/M12 A2978 RMK AC1CI1 SLP126
Loading
Personal Weather Stations






























Interactive Weather Map New forecast layout! Learn more

10-Day Weather Forecast

Advertisements
Track Severe Weather on mobile